createdAt,value
2018-08-17T00:00:55.511Z,60.90
2018-08-17T00:03:25.948Z,60.50
2018-08-17T00:05:56.925Z,60.70
2018-08-17T00:08:26.428Z,60.90
2018-08-17T00:10:56.877Z,61.00
2018-08-17T00:13:26.422Z,61.00
2018-08-17T00:15:57.021Z,61.50
2018-08-17T00:18:27.326Z,61.80
2018-08-17T00:20:58.381Z,62.10
2018-08-17T00:23:28.099Z,62.40
2018-08-17T00:25:57.303Z,62.10
2018-08-17T00:28:29.276Z,62.00
2018-08-17T00:31:01.356Z,62.20
2018-08-17T00:33:32.608Z,62.50
2018-08-17T00:36:02.020Z,62.40
2018-08-17T00:38:32.983Z,62.80
2018-08-17T00:41:02.507Z,63.40
2018-08-17T00:43:34.509Z,63.90
2018-08-17T00:46:03.716Z,64.40
2018-08-17T00:48:33.012Z,64.80
2018-08-17T00:51:02.281Z,64.60
2018-08-17T00:53:31.922Z,65.00
2018-08-17T00:56:03.245Z,65.10
2018-08-17T00:58:32.467Z,65.10
2018-08-17T01:01:01.968Z,65.40
2018-08-17T01:03:32.211Z,65.50
2018-08-17T01:06:01.383Z,65.50
2018-08-17T01:08:37.586Z,65.60
2018-08-17T01:11:11.724Z,66.30
2018-08-17T01:13:42.247Z,66.50
2018-08-17T01:16:12.284Z,66.70
2018-08-17T01:18:42.423Z,67.00
2018-08-17T01:21:12.354Z,67.20
2018-08-17T01:23:41.920Z,67.80
2018-08-17T01:26:13.509Z,67.80
2018-08-17T01:28:43.290Z,68.00
2018-08-17T01:31:13.069Z,68.20
2018-08-17T01:33:43.457Z,68.80
2018-08-17T01:36:13.929Z,68.80
2018-08-17T01:38:44.905Z,68.80
2018-08-17T01:41:14.706Z,69.10
2018-08-17T01:43:48.679Z,69.10
2018-08-17T01:46:17.974Z,69.20
2018-08-17T01:48:48.231Z,69.10
2018-08-17T01:51:18.444Z,69.40
2018-08-17T01:53:48.407Z,69.20
2018-08-17T01:56:18.214Z,69.40
2018-08-17T01:58:47.958Z,69.30
2018-08-17T02:01:22.029Z,69.50
2018-08-17T02:03:54.829Z,69.70
2018-08-17T02:06:24.303Z,69.80
2018-08-17T02:08:56.996Z,70.00
2018-08-17T02:11:31.926Z,69.90
2018-08-17T02:14:01.634Z,70.20
2018-08-17T02:16:33.634Z,70.00
2018-08-17T02:19:05.552Z,70.00
2018-08-17T02:21:36.285Z,70.00
2018-08-17T02:24:07.374Z,70.00
2018-08-17T02:26:39.387Z,70.00
2018-08-17T02:29:09.065Z,70.10
2018-08-17T02:31:38.994Z,70.00
2018-08-17T02:34:09.453Z,70.00
2018-08-17T02:36:38.734Z,70.10
2018-08-17T02:39:09.279Z,70.10
2018-08-17T02:41:41.007Z,70.20
2018-08-17T02:44:11.077Z,70.40
2018-08-17T02:46:40.346Z,70.90
2018-08-17T02:49:13.444Z,71.60
2018-08-17T02:51:43.979Z,70.90
2018-08-17T02:54:14.245Z,70.90
2018-08-17T02:56:45.205Z,70.60
2018-08-17T02:59:17.630Z,71.00
2018-08-17T03:01:47.397Z,71.40
2018-08-17T03:04:17.592Z,71.20
2018-08-17T03:06:47.665Z,71.50
2018-08-17T03:09:17.410Z,71.70
2018-08-17T03:11:46.564Z,71.80
2018-08-17T03:14:16.958Z,71.90
2018-08-17T03:16:46.910Z,72.10
2018-08-17T03:19:17.606Z,72.20
2018-08-17T03:21:47.941Z,72.20
2018-08-17T03:24:21.956Z,72.40
2018-08-17T03:26:52.638Z,72.40
2018-08-17T03:29:23.481Z,72.50
2018-08-17T03:31:55.037Z,72.80
2018-08-17T03:34:24.825Z,73.60
2018-08-17T03:36:54.641Z,72.80
2018-08-17T03:39:24.333Z,72.80
2018-08-17T03:41:53.941Z,72.50
2018-08-17T03:44:23.878Z,72.50
2018-08-17T03:46:54.122Z,72.30
2018-08-17T03:49:28.561Z,72.40
2018-08-17T03:51:58.670Z,72.40
2018-08-17T03:54:29.635Z,72.20
2018-08-17T03:57:00.676Z,72.20
2018-08-17T03:59:30.317Z,72.10
2018-08-17T04:02:02.346Z,72.10
2018-08-17T04:04:31.924Z,72.00
2018-08-17T04:07:02.020Z,71.90
2018-08-17T04:09:31.516Z,71.80
2018-08-17T04:12:00.754Z,71.90
2018-08-17T04:14:32.995Z,71.80
2018-08-17T04:17:05.382Z,71.70
2018-08-17T04:19:34.850Z,71.80
2018-08-17T04:22:04.597Z,71.50
2018-08-17T04:24:40.040Z,71.90
2018-08-17T04:27:09.741Z,72.10
2018-08-17T04:29:41.189Z,71.90
2018-08-17T04:32:14.414Z,72.00
2018-08-17T04:34:47.457Z,72.20
2018-08-17T04:37:17.039Z,72.20
2018-08-17T04:39:46.463Z,72.00
2018-08-17T04:42:17.373Z,72.30
2018-08-17T04:44:47.617Z,72.80
2018-08-17T04:47:24.071Z,72.80
2018-08-17T04:49:53.929Z,72.80
2018-08-17T04:52:24.557Z,73.00
2018-08-17T04:54:56.389Z,73.30
2018-08-17T04:57:26.710Z,73.10
2018-08-17T04:59:56.490Z,73.40
2018-08-17T05:02:26.546Z,73.90
2018-08-17T05:04:57.889Z,74.40
2018-08-17T05:07:27.137Z,75.50
2018-08-17T05:09:56.800Z,74.60
2018-08-17T05:12:26.679Z,75.00
2018-08-17T05:14:57.600Z,75.30
2018-08-17T05:17:27.460Z,75.70
2018-08-17T05:19:59.358Z,75.30
2018-08-17T05:22:29.181Z,75.60
2018-08-17T05:25:00.445Z,75.80
2018-08-17T05:33:48.973Z,75.50
2018-08-17T05:36:18.634Z,76.20
2018-08-17T05:38:49.379Z,76.50
2018-08-17T05:41:20.202Z,77.30
2018-08-17T05:43:49.870Z,76.80
2018-08-17T05:46:20.513Z,77.70
2018-08-17T05:48:52.419Z,77.20
2018-08-17T05:51:23.026Z,77.40
2018-08-17T05:53:53.837Z,78.00
2018-08-17T05:56:23.835Z,78.50
2018-08-17T05:58:55.224Z,78.50
2018-08-17T06:01:26.094Z,78.50
2018-08-17T06:04:01.223Z,78.60
2018-08-17T06:06:34.166Z,78.70
2018-08-17T06:09:05.971Z,78.70
2018-08-17T06:11:37.293Z,78.70
2018-08-17T06:14:11.198Z,79.00
2018-08-17T06:16:41.792Z,79.20
2018-08-17T06:19:12.229Z,79.60
2018-08-17T06:21:42.378Z,80.00
2018-08-17T06:24:13.267Z,80.60
2018-08-17T06:26:45.381Z,81.10
2018-08-17T06:29:15.160Z,81.30
2018-08-17T06:31:45.510Z,81.70
2018-08-17T06:34:14.723Z,80.80
2018-08-17T06:36:43.958Z,81.40
2018-08-17T06:39:13.119Z,81.30
2018-08-17T06:41:42.929Z,81.50
2018-08-17T06:44:12.058Z,82.00
2018-08-17T06:46:41.274Z,82.30
2018-08-17T06:49:11.372Z,82.50
2018-08-17T06:51:41.992Z,82.40
2018-08-17T06:54:11.234Z,82.40
2018-08-17T06:56:40.488Z,82.90
2018-08-17T06:59:09.759Z,83.20
2018-08-17T07:01:39.485Z,83.10
2018-08-17T07:04:08.719Z,83.70
2018-08-17T07:06:38.317Z,83.90
2018-08-17T07:09:09.393Z,84.10
2018-08-17T07:11:39.193Z,84.50
2018-08-17T07:14:09.145Z,84.40
2018-08-17T07:16:38.772Z,85.50
2018-08-17T07:19:08.013Z,85.10
2018-08-17T07:21:37.284Z,85.80
2018-08-17T07:24:06.588Z,85.40
2018-08-17T07:26:36.052Z,85.20
2018-08-17T07:29:07.040Z,85.10
2018-08-17T07:31:40.011Z,85.30
2018-08-17T07:34:13.269Z,85.40
2018-08-17T07:36:43.535Z,85.20
2018-08-17T07:39:13.541Z,86.90
2018-08-17T07:41:45.681Z,85.30
2018-08-17T07:44:16.626Z,85.50
2018-08-17T07:46:54.149Z,85.40
2018-08-17T07:49:23.805Z,85.10
2018-08-17T07:51:53.662Z,84.50
2018-08-17T07:54:28.781Z,83.60
2018-08-17T07:57:01.453Z,82.90
2018-08-17T07:59:32.973Z,83.30
2018-08-17T08:02:02.120Z,83.00
2018-08-17T08:04:31.679Z,82.70
2018-08-17T08:07:07.023Z,82.60
2018-08-17T08:09:40.180Z,83.60
2018-08-17T08:12:11.224Z,83.10
2018-08-17T08:14:44.840Z,83.90
2018-08-17T08:17:14.740Z,84.50
2018-08-17T08:19:45.284Z,84.40
2018-08-17T08:22:27.383Z,84.30
2018-08-17T08:24:59.367Z,83.60
2018-08-17T08:27:31.921Z,82.90
2018-08-17T08:30:06.726Z,83.20
2018-08-17T08:32:39.814Z,83.40
2018-08-17T08:35:11.424Z,83.30
2018-08-17T08:37:43.561Z,82.90
2018-08-17T08:40:15.577Z,82.80
2018-08-17T08:42:46.377Z,82.80
2018-08-17T08:45:16.468Z,81.90
2018-08-17T08:47:46.639Z,81.80
2018-08-17T08:50:16.848Z,81.40
2018-08-17T08:52:49.288Z,81.90
2018-08-17T08:55:23.091Z,81.80
2018-08-17T08:57:53.865Z,81.80
2018-08-17T09:00:23.763Z,81.70
2018-08-17T09:02:54.976Z,81.80
2018-08-17T09:05:26.834Z,81.80
2018-08-17T09:07:57.977Z,82.10
2018-08-17T09:10:28.209Z,82.10
2018-08-17T09:13:00.493Z,82.70
2018-08-17T09:15:30.021Z,82.50
2018-08-17T09:17:59.991Z,82.70
2018-08-17T09:20:34.842Z,82.90
2018-08-17T09:23:04.945Z,82.70
2018-08-17T09:25:34.725Z,83.10
2018-08-17T09:30:44.521Z,83.60
2018-08-17T09:33:15.780Z,83.90
2018-08-17T09:35:45.161Z,84.60
2018-08-17T09:38:15.240Z,84.20
2018-08-17T09:40:44.876Z,84.40
2018-08-17T09:43:16.692Z,85.20
2018-08-17T09:45:47.034Z,85.00
2018-08-17T09:48:17.363Z,85.00
2018-08-17T09:50:46.979Z,84.40
2018-08-17T09:53:17.190Z,84.40
2018-08-17T09:55:47.912Z,84.10
2018-08-17T09:58:18.258Z,83.80
2018-08-17T10:00:54.428Z,83.40
2018-08-17T10:03:29.173Z,82.90
2018-08-17T10:06:04.007Z,83.20
2018-08-17T10:09:37.906Z,83.30
2018-08-17T10:12:07.958Z,83.40
2018-08-17T10:14:38.916Z,83.20
2018-08-17T10:17:09.081Z,83.30
2018-08-17T10:19:39.051Z,83.50
2018-08-17T10:22:08.544Z,83.50
2018-08-17T10:24:41.295Z,84.00
2018-08-17T10:27:12.001Z,84.10
2018-08-17T10:29:42.312Z,84.20
2018-08-17T10:32:11.638Z,84.30
2018-08-17T10:34:42.663Z,84.90
2018-08-17T10:37:14.312Z,85.10
2018-08-17T10:39:43.578Z,84.60
2018-08-17T10:42:14.224Z,84.70
2018-08-17T10:44:45.826Z,84.70
2018-08-17T10:47:15.515Z,83.80
2018-08-17T10:49:45.568Z,84.40
2018-08-17T10:52:17.126Z,83.80
2018-08-17T10:54:50.386Z,84.40
2018-08-17T10:57:20.919Z,83.50
2018-08-17T10:59:51.251Z,83.60
2018-08-17T11:02:21.407Z,83.20
2018-08-17T11:04:54.812Z,82.80
2018-08-17T11:07:31.300Z,82.90
2018-08-17T11:10:02.030Z,82.60
2018-08-17T11:12:32.810Z,83.00
2018-08-17T11:15:03.134Z,83.10
2018-08-17T11:17:38.686Z,82.90
2018-08-17T11:20:08.882Z,83.20
2018-08-17T11:22:40.167Z,84.20
2018-08-17T11:25:11.061Z,83.50
2018-08-17T11:27:41.340Z,83.60
2018-08-17T11:30:13.634Z,84.10
2018-08-17T11:32:44.159Z,84.20
2018-08-17T11:35:25.836Z,84.40
2018-08-17T11:37:56.833Z,84.40
2018-08-17T11:40:26.366Z,83.80
2018-08-17T11:42:57.261Z,84.10
2018-08-17T11:45:27.812Z,83.70
2018-08-17T11:47:59.873Z,83.80
2018-08-17T11:50:32.213Z,83.90
2018-08-17T11:53:02.690Z,83.50
2018-08-17T11:55:35.015Z,84.90
2018-08-17T11:58:10.433Z,84.40
2018-08-17T12:03:23.682Z,85.30
2018-08-17T12:05:53.044Z,84.80
2018-08-17T12:08:22.913Z,83.80
2018-08-17T12:10:57.334Z,84.60
2018-08-17T12:13:28.666Z,84.20
2018-08-17T12:16:01.073Z,83.70
2018-08-17T12:18:30.766Z,82.50
2018-08-17T12:21:00.507Z,82.80
2018-08-17T12:23:31.306Z,82.00
2018-08-17T12:26:00.861Z,81.80
2018-08-17T12:28:32.157Z,81.00
2018-08-17T12:31:02.545Z,79.70
2018-08-17T12:33:34.433Z,79.00
2018-08-17T12:36:03.955Z,79.00
2018-08-17T12:38:38.625Z,77.90
2018-08-17T12:41:09.000Z,76.30
2018-08-17T12:43:40.064Z,75.80
2018-08-17T12:46:09.913Z,75.40
2018-08-17T12:48:40.900Z,75.30
2018-08-17T12:51:14.158Z,75.30
2018-08-17T12:53:44.643Z,74.50
2018-08-17T12:56:14.856Z,74.10
2018-08-17T12:58:45.060Z,73.90
2018-08-17T13:01:17.442Z,74.00
2018-08-17T13:03:49.986Z,73.50
2018-08-17T13:06:20.584Z,72.70
2018-08-17T13:08:55.345Z,71.60
2018-08-17T13:11:27.291Z,70.90
2018-08-17T13:14:11.875Z,70.20
2018-08-17T13:16:43.765Z,70.70
2018-08-17T13:19:14.643Z,70.40
2018-08-17T13:21:45.018Z,69.30
2018-08-17T13:24:17.907Z,66.60
2018-08-17T13:26:49.522Z,65.50
2018-08-17T13:29:22.053Z,66.20
2018-08-17T13:31:51.651Z,65.10
2018-08-17T13:34:23.546Z,66.90
2018-08-17T13:36:54.151Z,65.70
2018-08-17T13:39:26.104Z,66.30
2018-08-17T13:41:56.116Z,66.80
2018-08-17T13:44:26.148Z,65.10
2018-08-17T13:46:56.436Z,63.80
2018-08-17T13:49:26.469Z,64.10
2018-08-17T13:51:58.202Z,64.80
2018-08-17T13:54:28.854Z,63.00
2018-08-17T13:57:01.648Z,63.10
2018-08-17T13:59:32.361Z,64.30
2018-08-17T14:02:01.989Z,65.00
2018-08-17T14:04:33.870Z,66.60
2018-08-17T14:07:05.166Z,65.60
2018-08-17T14:09:38.084Z,66.60
2018-08-17T14:12:13.319Z,67.30
2018-08-17T14:14:44.310Z,67.20
2018-08-17T14:17:14.016Z,67.00
2018-08-17T14:19:44.005Z,67.00
2018-08-17T14:22:19.144Z,67.10
2018-08-17T14:24:49.623Z,66.80
2018-08-17T14:27:19.983Z,66.60
2018-08-17T14:29:49.672Z,67.10
2018-08-17T14:32:19.912Z,64.90
2018-08-17T14:34:49.834Z,65.60
2018-08-17T14:37:20.103Z,64.60
2018-08-17T14:39:51.281Z,65.50
2018-08-17T14:42:21.056Z,65.00
2018-08-17T14:44:50.665Z,64.40
2018-08-17T14:47:20.783Z,64.20
2018-08-17T14:49:51.250Z,64.60
2018-08-17T14:52:21.185Z,64.70
2018-08-17T14:54:51.704Z,64.00
2018-08-17T14:57:21.741Z,64.00
2018-08-17T14:59:51.407Z,62.50
2018-08-17T15:02:22.837Z,61.20
2018-08-17T15:04:52.173Z,61.50
2018-08-17T15:07:24.118Z,61.90
2018-08-17T15:09:58.149Z,62.90
2018-08-17T15:12:27.838Z,63.00
2018-08-17T15:14:58.002Z,62.60
2018-08-17T15:17:27.247Z,64.20
2018-08-17T15:19:57.015Z,62.50
2018-08-17T15:22:27.901Z,61.80
2018-08-17T15:25:05.552Z,60.80
2018-08-17T15:27:35.841Z,59.90
2018-08-17T15:30:08.885Z,59.10
2018-08-17T15:32:39.576Z,58.80
2018-08-17T15:35:13.525Z,58.60
2018-08-17T15:37:43.985Z,59.20
2018-08-17T15:40:15.928Z,59.60
2018-08-17T15:42:45.542Z,59.10
2018-08-17T15:45:21.139Z,59.30
2018-08-17T15:47:50.653Z,58.60
2018-08-17T15:50:21.319Z,58.60
2018-08-17T15:52:52.328Z,57.80
2018-08-17T15:55:22.380Z,57.90
2018-08-17T15:57:54.611Z,58.00
2018-08-17T16:00:24.463Z,57.90
2018-08-17T16:02:57.935Z,58.30
2018-08-17T16:05:27.359Z,57.80
2018-08-17T16:07:57.853Z,57.40
2018-08-17T16:10:27.353Z,57.60
2018-08-17T16:12:57.013Z,57.50
2018-08-17T16:15:27.195Z,58.20
2018-08-17T16:17:56.659Z,58.80
2018-08-17T16:20:27.578Z,57.80
2018-08-17T16:22:57.357Z,58.60
2018-08-17T16:25:29.716Z,58.60
2018-08-17T16:28:00.568Z,57.90
2018-08-17T16:30:31.695Z,56.60
2018-08-17T16:33:04.261Z,57.10
2018-08-17T16:35:34.265Z,57.00
2018-08-17T16:38:04.787Z,57.10
2018-08-17T16:40:53.496Z,57.10
2018-08-17T16:43:41.257Z,57.20
2018-08-17T16:46:12.674Z,57.20
2018-08-17T16:48:43.753Z,56.70
2018-08-17T16:51:13.552Z,56.50
2018-08-17T16:53:44.139Z,56.40
2018-08-17T16:56:15.217Z,55.90
2018-08-17T16:58:46.446Z,56.30
2018-08-17T17:01:17.234Z,55.90
2018-08-17T17:03:47.595Z,56.20
2018-08-17T17:06:18.615Z,56.20
2018-08-17T17:08:48.487Z,55.80
2018-08-17T17:11:19.491Z,55.20
2018-08-17T17:13:49.758Z,55.30
2018-08-17T17:16:19.312Z,55.90
2018-08-17T17:18:53.424Z,56.10
2018-08-17T17:21:25.739Z,55.40
2018-08-17T17:23:59.850Z,55.20
2018-08-17T17:26:29.516Z,55.90
2018-08-17T17:29:02.666Z,55.40
2018-08-17T17:31:32.877Z,55.80
2018-08-17T17:34:03.153Z,55.70
2018-08-17T17:36:32.542Z,55.80
2018-08-17T17:39:02.087Z,56.40
2018-08-17T17:41:33.036Z,56.30
2018-08-17T17:44:03.032Z,56.30
2018-08-17T17:46:34.270Z,56.50
2018-08-17T17:49:04.513Z,57.40
2018-08-17T17:51:34.007Z,57.10
2018-08-17T17:54:04.074Z,56.70
2018-08-17T17:56:34.997Z,57.20
2018-08-17T17:59:10.692Z,57.20
2018-08-17T18:01:42.040Z,57.60
2018-08-17T18:04:11.360Z,57.70
2018-08-17T18:06:41.770Z,57.80
2018-08-17T18:09:13.298Z,57.70
2018-08-17T18:11:45.528Z,58.00
2018-08-17T18:14:15.524Z,57.90
2018-08-17T18:16:45.847Z,58.00
2018-08-17T18:19:16.172Z,58.20
2018-08-17T18:21:45.765Z,58.00
2018-08-17T18:24:17.215Z,58.20
2018-08-17T18:26:51.951Z,58.30
2018-08-17T18:29:23.560Z,58.50
2018-08-17T18:31:53.496Z,58.40
2018-08-17T18:34:24.206Z,58.60
2018-08-17T18:36:54.335Z,58.80
2018-08-17T18:39:23.913Z,59.00
2018-08-17T18:41:53.004Z,58.90
2018-08-17T18:44:24.227Z,58.90
2018-08-17T18:46:53.276Z,59.20
2018-08-17T18:49:23.877Z,58.80
2018-08-17T18:51:53.588Z,59.20
2018-08-17T18:54:23.848Z,59.30
2018-08-17T18:56:56.044Z,59.30
2018-08-17T18:59:26.898Z,59.40
2018-08-17T19:01:56.138Z,59.60
2018-08-17T19:04:28.417Z,59.60
2018-08-17T19:06:58.859Z,59.60
2018-08-17T19:09:28.880Z,59.80
2018-08-17T19:11:58.276Z,60.50
2018-08-17T19:14:28.368Z,60.50
2018-08-17T19:16:57.472Z,60.90
2018-08-17T19:19:27.749Z,61.60
2018-08-17T19:22:00.070Z,61.50
2018-08-17T19:24:30.501Z,62.00
2018-08-17T19:27:01.846Z,61.90
2018-08-17T19:29:32.798Z,62.10
2018-08-17T19:32:05.426Z,62.70
2018-08-17T19:34:36.779Z,63.10
2018-08-17T19:37:10.647Z,63.70
2018-08-17T19:39:48.148Z,63.70
2018-08-17T19:42:22.711Z,64.10
2018-08-17T19:44:52.244Z,64.10
2018-08-17T19:47:23.123Z,64.50
2018-08-17T19:49:57.149Z,65.80
2018-08-17T19:52:28.642Z,65.70
2018-08-17T19:55:03.357Z,65.40
2018-08-17T19:57:33.915Z,65.20
2018-08-17T20:00:09.158Z,65.70
2018-08-17T20:02:38.949Z,65.40
2018-08-17T20:05:10.318Z,66.60
2018-08-17T20:07:41.136Z,67.10
2018-08-17T20:10:14.380Z,66.70
2018-08-17T20:12:46.873Z,66.90
2018-08-17T20:15:16.439Z,67.20
2018-08-17T20:17:52.459Z,67.20
2018-08-17T20:20:24.350Z,67.70
2018-08-17T20:23:00.443Z,68.20
2018-08-17T20:25:31.968Z,68.40
2018-08-17T20:28:02.761Z,68.40
2018-08-17T20:30:33.182Z,69.30
2018-08-17T20:33:02.604Z,68.40
2018-08-17T20:35:32.161Z,68.60
2018-08-17T20:38:02.024Z,68.70
2018-08-17T20:40:32.681Z,68.90
2018-08-17T20:43:05.473Z,68.90
2018-08-17T20:45:36.952Z,68.90
2018-08-17T20:48:10.012Z,69.30
2018-08-17T20:50:40.530Z,69.30
2018-08-17T20:56:09.358Z,68.60
2018-08-17T20:58:40.026Z,69.30
2018-08-17T21:01:14.000Z,69.50
2018-08-17T21:03:43.397Z,69.60
2018-08-17T21:06:12.921Z,70.00
2018-08-17T21:08:42.145Z,69.90
2018-08-17T21:11:12.011Z,69.80
2018-08-17T21:14:03.038Z,69.80
2018-08-17T21:16:33.371Z,69.90
2018-08-17T21:19:03.233Z,70.00
2018-08-17T21:21:34.825Z,70.00
2018-08-17T21:24:04.981Z,70.00
2018-08-17T21:26:34.128Z,70.00
2018-08-17T21:29:06.007Z,70.00
2018-08-17T21:31:35.842Z,69.70
2018-08-17T21:34:05.244Z,69.80
2018-08-17T21:36:34.539Z,70.00
2018-08-17T21:39:16.238Z,69.70
2018-08-17T21:41:47.750Z,69.60
2018-08-17T21:44:21.103Z,69.50
2018-08-17T21:46:56.831Z,69.30
2018-08-17T21:49:26.673Z,69.30
2018-08-17T21:51:58.626Z,69.40
2018-08-17T21:54:31.775Z,69.30
2018-08-17T21:57:02.177Z,69.30
2018-08-17T21:59:37.612Z,69.20
2018-08-17T22:02:11.090Z,69.00
2018-08-17T22:04:40.287Z,69.10
2018-08-17T22:07:28.101Z,69.20
2018-08-17T22:09:57.877Z,68.90
2018-08-17T22:12:28.342Z,69.00
2018-08-17T22:14:57.447Z,68.80
2018-08-17T22:17:36.445Z,68.80
2018-08-17T22:20:08.461Z,69.20
2018-08-17T22:22:38.545Z,69.20
2018-08-17T22:25:16.025Z,69.10
2018-08-17T22:27:45.257Z,69.50
2018-08-17T22:30:21.991Z,69.70
2018-08-17T22:32:51.683Z,70.10
2018-08-17T22:35:21.446Z,70.40
2018-08-17T22:37:52.577Z,70.80
2018-08-17T22:40:21.950Z,71.40
2018-08-17T22:42:51.997Z,71.80
2018-08-17T22:45:21.232Z,72.00
2018-08-17T22:47:52.963Z,72.30
2018-08-17T22:50:22.418Z,72.60
2018-08-17T22:52:52.880Z,72.80
2018-08-17T22:55:23.770Z,72.90
2018-08-17T22:57:56.041Z,73.10
2018-08-17T23:00:26.821Z,73.20
2018-08-17T23:02:57.467Z,73.10
2018-08-17T23:05:28.578Z,73.20
2018-08-17T23:07:58.969Z,73.40
2018-08-17T23:10:29.343Z,73.40
2018-08-17T23:12:59.051Z,73.30
2018-08-17T23:15:28.608Z,74.30
2018-08-17T23:18:00.174Z,73.50
2018-08-17T23:20:36.416Z,74.30
2018-08-17T23:23:06.701Z,73.70
2018-08-17T23:25:35.959Z,73.70
2018-08-17T23:28:06.853Z,74.10
2018-08-17T23:30:36.469Z,74.20
2018-08-17T23:33:05.697Z,74.30
2018-08-17T23:35:34.932Z,74.10
2018-08-17T23:38:04.055Z,74.20
2018-08-17T23:40:33.518Z,74.30
2018-08-17T23:43:02.966Z,74.60
2018-08-17T23:45:32.891Z,74.80
2018-08-17T23:48:02.783Z,75.00
2018-08-17T23:50:31.983Z,75.20
2018-08-17T23:53:01.228Z,75.30
2018-08-17T23:55:30.554Z,75.30
2018-08-17T23:57:59.935Z,75.30
